sensor_id;sensor_type;location;lat;lon;timestamp;temperature;humidity
37050;DHT22;22958;51.232;6.826;2023-07-09T00:01:54;23.40;99.90
37050;DHT22;22958;51.232;6.826;2023-07-09T00:04:19;23.30;99.90
37050;DHT22;22958;51.232;6.826;2023-07-09T00:06:45;23.30;99.90
37050;DHT22;22958;51.232;6.826;2023-07-09T00:09:16;23.20;99.90
37050;DHT22;22958;51.232;6.826;2023-07-09T00:11:43;23.30;99.90
37050;DHT22;22958;51.232;6.826;2023-07-09T00:14:10;23.20;99.90
37050;DHT22;22958;51.232;6.826;2023-07-09T00:16:37;23.30;99.90
37050;DHT22;22958;51.232;6.826;2023-07-09T00:19:04;23.20;99.90
37050;DHT22;22958;51.232;6.826;2023-07-09T00:21:30;23.20;99.90
37050;DHT22;22958;51.232;6.826;2023-07-09T00:24:00;23.20;99.90
37050;DHT22;22958;51.232;6.826;2023-07-09T00:26:31;23.20;99.90
37050;DHT22;22958;51.232;6.826;2023-07-09T00:28:58;23.20;99.90
37050;DHT22;22958;51.232;6.826;2023-07-09T00:31:24;23.10;99.90
37050;DHT22;22958;51.232;6.826;2023-07-09T00:33:49;23.00;99.90
37050;DHT22;22958;51.232;6.826;2023-07-09T00:36:27;23.00;99.90
37050;DHT22;22958;51.232;6.826;2023-07-09T00:38:54;23.00;99.90
37050;DHT22;22958;51.232;6.826;2023-07-09T00:41:22;23.00;99.90
37050;DHT22;22958;51.232;6.826;2023-07-09T00:43:49;22.90;99.90
37050;DHT22;22958;51.232;6.826;2023-07-09T00:49:03;22.90;99.90
37050;DHT22;22958;51.232;6.826;2023-07-09T00:51:38;22.80;99.90
37050;DHT22;22958;51.232;6.826;2023-07-09T00:54:13;22.70;99.90
37050;DHT22;22958;51.232;6.826;2023-07-09T00:56:42;22.70;99.90
37050;DHT22;22958;51.232;6.826;2023-07-09T00:59:13;22.70;99.90
37050;DHT22;22958;51.232;6.826;2023-07-09T01:01:40;22.70;99.90
37050;DHT22;22958;51.232;6.826;2023-07-09T01:04:06;22.60;99.90
37050;DHT22;22958;51.232;6.826;2023-07-09T01:06:39;22.60;99.90
37050;DHT22;22958;51.232;6.826;2023-07-09T01:09:07;22.60;99.90
37050;DHT22;22958;51.232;6.826;2023-07-09T01:11:33;22.50;99.90
37050;DHT22;22958;51.232;6.826;2023-07-09T01:14:01;22.50;99.90
37050;DHT22;22958;51.232;6.826;2023-07-09T01:16:31;22.50;99.90
37050;DHT22;22958;51.232;6.826;2023-07-09T01:18:59;22.50;99.90
37050;DHT22;22958;51.232;6.826;2023-07-09T01:21:26;22.50;99.90
37050;DHT22;22958;51.232;6.826;2023-07-09T01:23:52;22.50;99.90
37050;DHT22;22958;51.232;6.826;2023-07-09T01:26:22;22.40;99.90
37050;DHT22;22958;51.232;6.826;2023-07-09T01:28:51;22.40;99.90
37050;DHT22;22958;51.232;6.826;2023-07-09T01:31:16;22.40;99.90
37050;DHT22;22958;51.232;6.826;2023-07-09T01:33:43;22.30;99.90
37050;DHT22;22958;51.232;6.826;2023-07-09T01:36:18;22.30;99.90
37050;DHT22;22958;51.232;6.826;2023-07-09T01:38:47;22.20;99.90
37050;DHT22;22958;51.232;6.826;2023-07-09T01:41:14;22.20;99.90
37050;DHT22;22958;51.232;6.826;2023-07-09T01:43:41;22.20;99.90
37050;DHT22;22958;51.232;6.826;2023-07-09T01:46:08;22.20;99.90
37050;DHT22;22958;51.232;6.826;2023-07-09T01:48:34;22.20;99.90
37050;DHT22;22958;51.232;6.826;2023-07-09T01:51:13;22.20;99.90
37050;DHT22;22958;51.232;6.826;2023-07-09T01:53:40;22.30;99.90
37050;DHT22;22958;51.232;6.826;2023-07-09T01:56:06;22.30;99.90
37050;DHT22;22958;51.232;6.826;2023-07-09T01:58:36;22.40;99.90
37050;DHT22;22958;51.232;6.826;2023-07-09T02:01:01;22.30;99.90
37050;DHT22;22958;51.232;6.826;2023-07-09T02:03:27;22.30;99.90
37050;DHT22;22958;51.232;6.826;2023-07-09T02:05:53;22.30;99.90
37050;DHT22;22958;51.232;6.826;2023-07-09T02:08:19;22.30;99.90
37050;DHT22;22958;51.232;6.826;2023-07-09T02:10:45;22.20;99.90
37050;DHT22;22958;51.232;6.826;2023-07-09T02:13:13;22.10;99.90
37050;DHT22;22958;51.232;6.826;2023-07-09T02:15:39;22.10;99.90
37050;DHT22;22958;51.232;6.826;2023-07-09T02:18:13;22.00;99.90
37050;DHT22;22958;51.232;6.826;2023-07-09T02:20:38;22.00;99.90
37050;DHT22;22958;51.232;6.826;2023-07-09T02:23:05;21.90;99.90
37050;DHT22;22958;51.232;6.826;2023-07-09T02:25:31;21.90;99.90
37050;DHT22;22958;51.232;6.826;2023-07-09T02:27:56;21.90;99.90
37050;DHT22;22958;51.232;6.826;2023-07-09T02:30:22;21.90;99.90
37050;DHT22;22958;51.232;6.826;2023-07-09T02:32:47;21.80;99.90
37050;DHT22;22958;51.232;6.826;2023-07-09T02:35:13;21.80;99.90
37050;DHT22;22958;51.232;6.826;2023-07-09T02:37:38;21.80;99.90
37050;DHT22;22958;51.232;6.826;2023-07-09T02:40:05;21.80;99.90
37050;DHT22;22958;51.232;6.826;2023-07-09T02:42:30;21.70;99.90
37050;DHT22;22958;51.232;6.826;2023-07-09T02:44:56;21.80;99.90
37050;DHT22;22958;51.232;6.826;2023-07-09T02:47:21;21.80;99.90
37050;DHT22;22958;51.232;6.826;2023-07-09T02:49:47;21.80;99.90
37050;DHT22;22958;51.232;6.826;2023-07-09T02:52:13;21.70;99.90
37050;DHT22;22958;51.232;6.826;2023-07-09T02:54:39;21.60;99.90
37050;DHT22;22958;51.232;6.826;2023-07-09T02:57:05;21.60;99.90
37050;DHT22;22958;51.232;6.826;2023-07-09T02:59:30;21.60;99.90
37050;DHT22;22958;51.232;6.826;2023-07-09T03:01:56;21.60;99.90
37050;DHT22;22958;51.232;6.826;2023-07-09T03:04:22;21.70;99.90
37050;DHT22;22958;51.232;6.826;2023-07-09T03:06:48;21.60;99.90
37050;DHT22;22958;51.232;6.826;2023-07-09T03:09:13;21.60;99.90
37050;DHT22;22958;51.232;6.826;2023-07-09T03:11:39;21.60;99.90
37050;DHT22;22958;51.232;6.826;2023-07-09T03:14:04;21.60;99.90
37050;DHT22;22958;51.232;6.826;2023-07-09T03:16:32;21.60;99.90
37050;DHT22;22958;51.232;6.826;2023-07-09T03:18:58;21.60;99.90
37050;DHT22;22958;51.232;6.826;2023-07-09T03:21:25;21.60;99.90
37050;DHT22;22958;51.232;6.826;2023-07-09T03:23:51;21.60;99.90
37050;DHT22;22958;51.232;6.826;2023-07-09T03:26:17;21.50;99.90
37050;DHT22;22958;51.232;6.826;2023-07-09T03:28:43;21.50;99.90
37050;DHT22;22958;51.232;6.826;2023-07-09T03:31:08;21.40;99.90
37050;DHT22;22958;51.232;6.826;2023-07-09T03:33:34;21.40;99.90
37050;DHT22;22958;51.232;6.826;2023-07-09T03:35:59;21.40;99.90
37050;DHT22;22958;51.232;6.826;2023-07-09T03:38:25;21.40;99.90
37050;DHT22;22958;51.232;6.826;2023-07-09T03:40:54;21.40;99.90
37050;DHT22;22958;51.232;6.826;2023-07-09T03:43:20;21.40;99.90
37050;DHT22;22958;51.232;6.826;2023-07-09T03:45:47;21.40;99.90
37050;DHT22;22958;51.232;6.826;2023-07-09T03:48:14;21.40;99.90
37050;DHT22;22958;51.232;6.826;2023-07-09T03:50:41;21.40;99.90
37050;DHT22;22958;51.232;6.826;2023-07-09T03:53:07;21.40;99.90
37050;DHT22;22958;51.232;6.826;2023-07-09T03:55:32;21.40;99.90
37050;DHT22;22958;51.232;6.826;2023-07-09T03:57:58;21.40;99.90
37050;DHT22;22958;51.232;6.826;2023-07-09T04:00:24;21.40;99.90
37050;DHT22;22958;51.232;6.826;2023-07-09T04:02:52;21.40;99.90
37050;DHT22;22958;51.232;6.826;2023-07-09T04:05:18;21.40;99.90
37050;DHT22;22958;51.232;6.826;2023-07-09T04:07:44;21.40;99.90
37050;DHT22;22958;51.232;6.826;2023-07-09T04:10:10;21.30;99.90
37050;DHT22;22958;51.232;6.826;2023-07-09T04:12:36;21.30;99.90
37050;DHT22;22958;51.232;6.826;2023-07-09T04:15:03;21.40;99.90
37050;DHT22;22958;51.232;6.826;2023-07-09T04:17:28;21.40;99.90
37050;DHT22;22958;51.232;6.826;2023-07-09T04:19:54;21.50;99.90
37050;DHT22;22958;51.232;6.826;2023-07-09T04:22:19;21.40;99.90
37050;DHT22;22958;51.232;6.826;2023-07-09T04:24:45;21.50;99.90
37050;DHT22;22958;51.232;6.826;2023-07-09T04:27:11;21.50;99.90
37050;DHT22;22958;51.232;6.826;2023-07-09T04:29:39;21.60;99.90
37050;DHT22;22958;51.232;6.826;2023-07-09T04:32:06;21.60;99.90
37050;DHT22;22958;51.232;6.826;2023-07-09T04:34:32;21.60;99.90
37050;DHT22;22958;51.232;6.826;2023-07-09T04:36:58;21.70;99.90
37050;DHT22;22958;51.232;6.826;2023-07-09T04:39:23;21.70;99.90
37050;DHT22;22958;51.232;6.826;2023-07-09T04:41:49;21.80;99.90
37050;DHT22;22958;51.232;6.826;2023-07-09T04:44:14;21.80;99.90
37050;DHT22;22958;51.232;6.826;2023-07-09T04:46:40;21.90;99.90
37050;DHT22;22958;51.232;6.826;2023-07-09T04:49:06;22.00;99.90
37050;DHT22;22958;51.232;6.826;2023-07-09T04:51:31;22.00;99.90
37050;DHT22;22958;51.232;6.826;2023-07-09T04:53:57;22.00;99.90
37050;DHT22;22958;51.232;6.826;2023-07-09T04:56:22;22.00;99.90
37050;DHT22;22958;51.232;6.826;2023-07-09T04:58:48;22.10;99.90
37050;DHT22;22958;51.232;6.826;2023-07-09T05:01:13;22.20;99.90
37050;DHT22;22958;51.232;6.826;2023-07-09T05:03:39;22.30;99.90
37050;DHT22;22958;51.232;6.826;2023-07-09T05:06:05;22.40;99.90
37050;DHT22;22958;51.232;6.826;2023-07-09T05:08:30;22.40;99.90
37050;DHT22;22958;51.232;6.826;2023-07-09T05:10:57;22.50;99.90
37050;DHT22;22958;51.232;6.826;2023-07-09T05:13:23;22.60;99.90
37050;DHT22;22958;51.232;6.826;2023-07-09T05:15:49;22.70;99.90
37050;DHT22;22958;51.232;6.826;2023-07-09T05:18:16;22.90;99.90
37050;DHT22;22958;51.232;6.826;2023-07-09T05:20:42;22.90;99.90
37050;DHT22;22958;51.232;6.826;2023-07-09T05:23:11;23.00;99.90
37050;DHT22;22958;51.232;6.826;2023-07-09T05:25:37;23.10;99.90
37050;DHT22;22958;51.232;6.826;2023-07-09T05:28:03;23.20;99.90
37050;DHT22;22958;51.232;6.826;2023-07-09T05:30:29;23.20;99.90
37050;DHT22;22958;51.232;6.826;2023-07-09T05:32:54;23.30;99.90
37050;DHT22;22958;51.232;6.826;2023-07-09T05:35:24;23.30;99.90
37050;DHT22;22958;51.232;6.826;2023-07-09T05:37:53;23.50;99.90
37050;DHT22;22958;51.232;6.826;2023-07-09T05:40:20;23.60;99.90
37050;DHT22;22958;51.232;6.826;2023-07-09T05:42:46;23.70;99.90
37050;DHT22;22958;51.232;6.826;2023-07-09T05:45:11;23.70;99.90
37050;DHT22;22958;51.232;6.826;2023-07-09T05:47:37;23.80;99.90
37050;DHT22;22958;51.232;6.826;2023-07-09T05:50:03;23.80;99.90
37050;DHT22;22958;51.232;6.826;2023-07-09T05:52:29;23.90;99.90
37050;DHT22;22958;51.232;6.826;2023-07-09T05:54:55;24.00;99.90
37050;DHT22;22958;51.232;6.826;2023-07-09T05:57:20;24.10;99.90
37050;DHT22;22958;51.232;6.826;2023-07-09T05:59:46;24.20;99.90
37050;DHT22;22958;51.232;6.826;2023-07-09T06:02:13;24.30;99.90
37050;DHT22;22958;51.232;6.826;2023-07-09T06:04:39;24.30;99.90
37050;DHT22;22958;51.232;6.826;2023-07-09T06:07:05;24.50;99.90
37050;DHT22;22958;51.232;6.826;2023-07-09T06:09:31;24.60;99.90
37050;DHT22;22958;51.232;6.826;2023-07-09T06:11:57;24.70;99.90
37050;DHT22;22958;51.232;6.826;2023-07-09T06:14:22;24.80;99.90
37050;DHT22;22958;51.232;6.826;2023-07-09T06:16:48;24.80;99.90
37050;DHT22;22958;51.232;6.826;2023-07-09T06:19:14;24.80;99.90
37050;DHT22;22958;51.232;6.826;2023-07-09T06:21:39;24.90;99.90
37050;DHT22;22958;51.232;6.826;2023-07-09T06:24:06;25.10;99.90
37050;DHT22;22958;51.232;6.826;2023-07-09T06:26:32;25.20;99.90
37050;DHT22;22958;51.232;6.826;2023-07-09T06:28:58;25.10;99.90
37050;DHT22;22958;51.232;6.826;2023-07-09T06:31:23;25.30;99.90
37050;DHT22;22958;51.232;6.826;2023-07-09T06:33:50;25.50;99.90
37050;DHT22;22958;51.232;6.826;2023-07-09T06:36:17;25.50;99.90
37050;DHT22;22958;51.232;6.826;2023-07-09T06:38:43;25.70;99.90
37050;DHT22;22958;51.232;6.826;2023-07-09T06:41:09;25.60;99.90
37050;DHT22;22958;51.232;6.826;2023-07-09T06:43:35;25.70;99.90
37050;DHT22;22958;51.232;6.826;2023-07-09T06:46:04;25.70;99.90
37050;DHT22;22958;51.232;6.826;2023-07-09T06:48:30;25.80;99.90
37050;DHT22;22958;51.232;6.826;2023-07-09T06:50:57;25.70;99.90
37050;DHT22;22958;51.232;6.826;2023-07-09T06:53:24;25.90;99.90
37050;DHT22;22958;51.232;6.826;2023-07-09T06:55:50;25.90;99.90
37050;DHT22;22958;51.232;6.826;2023-07-09T06:58:16;26.20;99.90
37050;DHT22;22958;51.232;6.826;2023-07-09T07:00:42;26.20;99.90
37050;DHT22;22958;51.232;6.826;2023-07-09T07:03:09;26.20;99.90
37050;DHT22;22958;51.232;6.826;2023-07-09T07:05:35;26.30;99.90
37050;DHT22;22958;51.232;6.826;2023-07-09T07:08:02;26.40;99.90
37050;DHT22;22958;51.232;6.826;2023-07-09T07:10:28;26.60;99.90
37050;DHT22;22958;51.232;6.826;2023-07-09T07:12:54;26.80;99.90
37050;DHT22;22958;51.232;6.826;2023-07-09T07:15:19;26.70;99.90
37050;DHT22;22958;51.232;6.826;2023-07-09T07:17:45;26.70;99.90
37050;DHT22;22958;51.232;6.826;2023-07-09T07:20:12;26.80;99.90
37050;DHT22;22958;51.232;6.826;2023-07-09T07:22:39;26.70;99.90
37050;DHT22;22958;51.232;6.826;2023-07-09T07:25:05;26.90;99.90
37050;DHT22;22958;51.232;6.826;2023-07-09T07:27:31;27.00;99.90
37050;DHT22;22958;51.232;6.826;2023-07-09T07:29:57;27.10;99.90
37050;DHT22;22958;51.232;6.826;2023-07-09T07:32:23;27.30;99.90
37050;DHT22;22958;51.232;6.826;2023-07-09T07:34:49;27.40;99.90
37050;DHT22;22958;51.232;6.826;2023-07-09T07:37:15;27.40;99.90
37050;DHT22;22958;51.232;6.826;2023-07-09T07:39:40;27.40;99.90
37050;DHT22;22958;51.232;6.826;2023-07-09T07:42:07;27.60;99.90
37050;DHT22;22958;51.232;6.826;2023-07-09T07:44:32;27.70;99.90
37050;DHT22;22958;51.232;6.826;2023-07-09T07:46:58;27.80;99.90
37050;DHT22;22958;51.232;6.826;2023-07-09T07:49:23;28.00;99.90
37050;DHT22;22958;51.232;6.826;2023-07-09T07:51:49;28.20;99.90
37050;DHT22;22958;51.232;6.826;2023-07-09T07:54:16;28.20;99.90
37050;DHT22;22958;51.232;6.826;2023-07-09T07:56:43;28.30;99.90
37050;DHT22;22958;51.232;6.826;2023-07-09T07:59:09;28.50;99.90
37050;DHT22;22958;51.232;6.826;2023-07-09T08:01:34;28.50;99.90
37050;DHT22;22958;51.232;6.826;2023-07-09T08:04:01;28.50;99.90
37050;DHT22;22958;51.232;6.826;2023-07-09T08:06:27;28.70;99.90
37050;DHT22;22958;51.232;6.826;2023-07-09T08:08:52;28.70;99.90
37050;DHT22;22958;51.232;6.826;2023-07-09T08:11:18;28.70;99.90
37050;DHT22;22958;51.232;6.826;2023-07-09T08:13:43;28.90;99.90
37050;DHT22;22958;51.232;6.826;2023-07-09T08:16:09;29.00;99.90
37050;DHT22;22958;51.232;6.826;2023-07-09T08:18:37;29.10;99.90
37050;DHT22;22958;51.232;6.826;2023-07-09T08:21:03;29.20;99.90
37050;DHT22;22958;51.232;6.826;2023-07-09T08:23:29;29.40;99.90
37050;DHT22;22958;51.232;6.826;2023-07-09T08:25:56;29.50;99.90
37050;DHT22;22958;51.232;6.826;2023-07-09T08:28:22;29.60;99.90
37050;DHT22;22958;51.232;6.826;2023-07-09T08:30:48;29.80;99.90
37050;DHT22;22958;51.232;6.826;2023-07-09T08:33:13;29.70;99.90
37050;DHT22;22958;51.232;6.826;2023-07-09T08:35:42;29.80;99.90
37050;DHT22;22958;51.232;6.826;2023-07-09T08:38:08;29.90;99.90
37050;DHT22;22958;51.232;6.826;2023-07-09T08:40:41;30.00;99.90
37050;DHT22;22958;51.232;6.826;2023-07-09T08:48:45;30.50;99.90
37050;DHT22;22958;51.232;6.826;2023-07-09T08:51:21;30.40;99.90
37050;DHT22;22958;51.232;6.826;2023-07-09T08:53:53;30.50;99.90
37050;DHT22;22958;51.232;6.826;2023-07-09T08:56:22;30.70;99.90
37050;DHT22;22958;51.232;6.826;2023-07-09T08:58:49;30.50;99.90
37050;DHT22;22958;51.232;6.826;2023-07-09T09:01:31;30.60;99.90
37050;DHT22;22958;51.232;6.826;2023-07-09T09:04:04;30.60;99.70
37050;DHT22;22958;51.232;6.826;2023-07-09T09:06:31;30.80;99.10
37050;DHT22;22958;51.232;6.826;2023-07-09T09:09:19;30.90;98.70
37050;DHT22;22958;51.232;6.826;2023-07-09T09:12:05;31.00;98.30
37050;DHT22;22958;51.232;6.826;2023-07-09T09:14:37;31.30;97.30
37050;DHT22;22958;51.232;6.826;2023-07-09T09:17:11;31.40;96.40
37050;DHT22;22958;51.232;6.826;2023-07-09T09:20:02;31.30;96.80
37050;DHT22;22958;51.232;6.826;2023-07-09T09:22:43;31.40;96.90
37050;DHT22;22958;51.232;6.826;2023-07-09T09:27:41;31.60;95.80
37050;DHT22;22958;51.232;6.826;2023-07-09T09:30:13;31.80;95.80
37050;DHT22;22958;51.232;6.826;2023-07-09T09:32:50;31.90;95.20
37050;DHT22;22958;51.232;6.826;2023-07-09T09:35:18;32.20;93.10
37050;DHT22;22958;51.232;6.826;2023-07-09T09:37:54;32.30;91.90
37050;DHT22;22958;51.232;6.826;2023-07-09T09:40:21;32.40;93.70
37050;DHT22;22958;51.232;6.826;2023-07-09T09:42:51;32.30;93.00
37050;DHT22;22958;51.232;6.826;2023-07-09T09:45:21;32.30;93.70
37050;DHT22;22958;51.232;6.826;2023-07-09T09:47:48;32.50;92.50
37050;DHT22;22958;51.232;6.826;2023-07-09T09:50:20;32.50;92.50
37050;DHT22;22958;51.232;6.826;2023-07-09T09:52:47;32.60;88.80
37050;DHT22;22958;51.232;6.826;2023-07-09T09:55:34;32.60;87.10
37050;DHT22;22958;51.232;6.826;2023-07-09T09:58:00;32.60;89.80
37050;DHT22;22958;51.232;6.826;2023-07-09T10:00:27;32.70;90.70
37050;DHT22;22958;51.232;6.826;2023-07-09T10:03:00;32.90;89.90
37050;DHT22;22958;51.232;6.826;2023-07-09T10:05:33;32.90;86.50
37050;DHT22;22958;51.232;6.826;2023-07-09T10:08:05;33.00;86.30
37050;DHT22;22958;51.232;6.826;2023-07-09T10:10:33;33.00;85.20
37050;DHT22;22958;51.232;6.826;2023-07-09T10:13:10;33.20;84.80
37050;DHT22;22958;51.232;6.826;2023-07-09T10:16:00;33.40;83.90
37050;DHT22;22958;51.232;6.826;2023-07-09T10:21:18;33.60;83.10
37050;DHT22;22958;51.232;6.826;2023-07-09T10:26:28;33.70;81.40
37050;DHT22;22958;51.232;6.826;2023-07-09T10:31:41;33.60;79.60
37050;DHT22;22958;51.232;6.826;2023-07-09T10:34:32;33.70;79.40
37050;DHT22;22958;51.232;6.826;2023-07-09T10:39:48;33.70;78.10
37050;DHT22;22958;51.232;6.826;2023-07-09T10:45:00;34.20;72.90
37050;DHT22;22958;51.232;6.826;2023-07-09T10:47:48;34.20;72.40
37050;DHT22;22958;51.232;6.826;2023-07-09T10:50:30;34.30;74.90
37050;DHT22;22958;51.232;6.826;2023-07-09T10:53:12;34.10;74.80
37050;DHT22;22958;51.232;6.826;2023-07-09T10:55:55;34.10;75.50
37050;DHT22;22958;51.232;6.826;2023-07-09T10:58:37;34.10;73.40
37050;DHT22;22958;51.232;6.826;2023-07-09T11:01:04;34.60;70.80
37050;DHT22;22958;51.232;6.826;2023-07-09T11:03:42;34.80;68.00
37050;DHT22;22958;51.232;6.826;2023-07-09T11:06:14;34.70;69.20
37050;DHT22;22958;51.232;6.826;2023-07-09T11:08:41;34.80;66.10
37050;DHT22;22958;51.232;6.826;2023-07-09T11:11:17;34.60;68.50
37050;DHT22;22958;51.232;6.826;2023-07-09T11:13:52;34.60;68.10
37050;DHT22;22958;51.232;6.826;2023-07-09T11:16:39;34.90;66.30
37050;DHT22;22958;51.232;6.826;2023-07-09T11:19:13;35.80;65.60
37050;DHT22;22958;51.232;6.826;2023-07-09T11:22:04;37.10;63.10
37050;DHT22;22958;51.232;6.826;2023-07-09T11:24:36;37.00;58.70
37050;DHT22;22958;51.232;6.826;2023-07-09T11:27:20;36.90;58.80
37050;DHT22;22958;51.232;6.826;2023-07-09T11:29:48;36.70;58.40
37050;DHT22;22958;51.232;6.826;2023-07-09T11:32:21;37.50;58.60
37050;DHT22;22958;51.232;6.826;2023-07-09T11:34:48;37.80;56.80
37050;DHT22;22958;51.232;6.826;2023-07-09T11:37:15;37.60;57.80
37050;DHT22;22958;51.232;6.826;2023-07-09T11:42:26;37.50;55.10
37050;DHT22;22958;51.232;6.826;2023-07-09T11:45:11;38.20;54.70
37050;DHT22;22958;51.232;6.826;2023-07-09T11:47:44;38.40;54.10
37050;DHT22;22958;51.232;6.826;2023-07-09T11:50:29;37.60;54.80
37050;DHT22;22958;51.232;6.826;2023-07-09T11:52:58;37.50;54.60
37050;DHT22;22958;51.232;6.826;2023-07-09T11:57:59;38.90;53.70
37050;DHT22;22958;51.232;6.826;2023-07-09T12:00:28;38.50;53.50
37050;DHT22;22958;51.232;6.826;2023-07-09T12:02:55;38.00;54.30
37050;DHT22;22958;51.232;6.826;2023-07-09T12:05:28;38.00;54.30
37050;DHT22;22958;51.232;6.826;2023-07-09T12:07:55;37.50;54.90
37050;DHT22;22958;51.232;6.826;2023-07-09T12:10:27;37.20;55.00
37050;DHT22;22958;51.232;6.826;2023-07-09T12:12:58;37.00;54.80
37050;DHT22;22958;51.232;6.826;2023-07-09T12:15:26;36.90;55.90
37050;DHT22;22958;51.232;6.826;2023-07-09T12:18:03;36.70;55.70
37050;DHT22;22958;51.232;6.826;2023-07-09T12:20:35;36.90;55.10
37050;DHT22;22958;51.232;6.826;2023-07-09T12:25:47;37.00;56.50
37050;DHT22;22958;51.232;6.826;2023-07-09T12:28:14;37.50;55.20
37050;DHT22;22958;51.232;6.826;2023-07-09T12:30:47;37.50;54.70
37050;DHT22;22958;51.232;6.826;2023-07-09T12:33:19;37.50;54.00
37050;DHT22;22958;51.232;6.826;2023-07-09T12:35:46;37.90;53.30
37050;DHT22;22958;51.232;6.826;2023-07-09T12:38:20;38.20;53.50
37050;DHT22;22958;51.232;6.826;2023-07-09T12:40:48;37.80;53.60
37050;DHT22;22958;51.232;6.826;2023-07-09T12:43:14;38.00;53.00
37050;DHT22;22958;51.232;6.826;2023-07-09T12:45:39;38.00;53.10
37050;DHT22;22958;51.232;6.826;2023-07-09T12:48:05;38.10;52.30
37050;DHT22;22958;51.232;6.826;2023-07-09T12:50:34;38.10;52.50
37050;DHT22;22958;51.232;6.826;2023-07-09T12:53:02;37.30;53.50
37050;DHT22;22958;51.232;6.826;2023-07-09T12:55:28;36.20;55.10
37050;DHT22;22958;51.232;6.826;2023-07-09T12:57:58;36.10;55.70
37050;DHT22;22958;51.232;6.826;2023-07-09T13:00:31;35.80;56.20
37050;DHT22;22958;51.232;6.826;2023-07-09T13:02:58;35.80;55.60
37050;DHT22;22958;51.232;6.826;2023-07-09T13:05:25;35.40;56.70
37050;DHT22;22958;51.232;6.826;2023-07-09T13:07:58;35.10;56.60
37050;DHT22;22958;51.232;6.826;2023-07-09T13:10:29;34.90;56.40
37050;DHT22;22958;51.232;6.826;2023-07-09T13:13:01;34.80;57.00
37050;DHT22;22958;51.232;6.826;2023-07-09T13:16:01;34.70;57.40
37050;DHT22;22958;51.232;6.826;2023-07-09T13:18:23;34.50;57.10
37050;DHT22;22958;51.232;6.826;2023-07-09T13:20:50;34.50;57.70
37050;DHT22;22958;51.232;6.826;2023-07-09T13:23:19;34.40;57.90
37050;DHT22;22958;51.232;6.826;2023-07-09T13:25:45;34.30;58.20
37050;DHT22;22958;51.232;6.826;2023-07-09T13:28:20;34.30;58.80
37050;DHT22;22958;51.232;6.826;2023-07-09T13:30:47;34.30;58.20
37050;DHT22;22958;51.232;6.826;2023-07-09T13:33:13;34.10;57.40
37050;DHT22;22958;51.232;6.826;2023-07-09T13:35:40;34.10;56.80
37050;DHT22;22958;51.232;6.826;2023-07-09T13:38:16;34.00;55.70
37050;DHT22;22958;51.232;6.826;2023-07-09T13:40:44;34.00;56.20
37050;DHT22;22958;51.232;6.826;2023-07-09T13:43:17;33.90;56.00
37050;DHT22;22958;51.232;6.826;2023-07-09T13:45:44;33.90;56.40
37050;DHT22;22958;51.232;6.826;2023-07-09T13:48:19;33.90;57.00
37050;DHT22;22958;51.232;6.826;2023-07-09T13:50:47;33.80;57.50
37050;DHT22;22958;51.232;6.826;2023-07-09T13:53:15;33.60;58.70
37050;DHT22;22958;51.232;6.826;2023-07-09T13:55:41;33.50;60.00
37050;DHT22;22958;51.232;6.826;2023-07-09T13:58:12;33.30;60.30
37050;DHT22;22958;51.232;6.826;2023-07-09T14:00:39;33.30;61.60
37050;DHT22;22958;51.232;6.826;2023-07-09T14:03:26;33.20;62.00
37050;DHT22;22958;51.232;6.826;2023-07-09T14:05:53;33.10;62.70
37050;DHT22;22958;51.232;6.826;2023-07-09T14:08:19;32.20;67.80
37050;DHT22;22958;51.232;6.826;2023-07-09T14:10:47;30.50;77.10
37050;DHT22;22958;51.232;6.826;2023-07-09T14:13:14;28.80;98.40
37050;DHT22;22958;51.232;6.826;2023-07-09T14:15:41;26.40;99.90
37050;DHT22;22958;51.232;6.826;2023-07-09T14:18:21;25.10;99.90
37050;DHT22;22958;51.232;6.826;2023-07-09T14:20:47;25.10;99.90
37050;DHT22;22958;51.232;6.826;2023-07-09T14:23:14;25.50;99.90
37050;DHT22;22958;51.232;6.826;2023-07-09T14:25:41;25.20;99.90
37050;DHT22;22958;51.232;6.826;2023-07-09T14:28:11;25.10;99.90
37050;DHT22;22958;51.232;6.826;2023-07-09T14:30:37;25.00;99.90
37050;DHT22;22958;51.232;6.826;2023-07-09T14:33:05;24.90;99.90
37050;DHT22;22958;51.232;6.826;2023-07-09T14:35:30;25.20;99.90
37050;DHT22;22958;51.232;6.826;2023-07-09T14:37:56;25.40;99.90
37050;DHT22;22958;51.232;6.826;2023-07-09T14:40:24;25.70;99.90
37050;DHT22;22958;51.232;6.826;2023-07-09T14:42:50;25.70;99.90
37050;DHT22;22958;51.232;6.826;2023-07-09T14:45:22;25.70;99.90
37050;DHT22;22958;51.232;6.826;2023-07-09T14:47:49;25.90;99.90
37050;DHT22;22958;51.232;6.826;2023-07-09T14:50:16;26.10;99.90
37050;DHT22;22958;51.232;6.826;2023-07-09T14:52:43;26.00;99.90
37050;DHT22;22958;51.232;6.826;2023-07-09T14:55:17;25.80;99.90
37050;DHT22;22958;51.232;6.826;2023-07-09T14:57:44;25.30;99.90
37050;DHT22;22958;51.232;6.826;2023-07-09T15:00:21;24.90;99.90
37050;DHT22;22958;51.232;6.826;2023-07-09T15:02:50;24.80;99.90
37050;DHT22;22958;51.232;6.826;2023-07-09T15:05:22;24.50;99.90
37050;DHT22;22958;51.232;6.826;2023-07-09T15:07:48;24.20;99.90
37050;DHT22;22958;51.232;6.826;2023-07-09T15:10:20;24.00;99.90
37050;DHT22;22958;51.232;6.826;2023-07-09T15:12:48;23.70;99.90
37050;DHT22;22958;51.232;6.826;2023-07-09T15:15:20;23.40;99.90
37050;DHT22;22958;51.232;6.826;2023-07-09T15:17:46;23.10;99.90
37050;DHT22;22958;51.232;6.826;2023-07-09T15:20:23;22.90;99.90
37050;DHT22;22958;51.232;6.826;2023-07-09T15:22:51;22.60;99.90
37050;DHT22;22958;51.232;6.826;2023-07-09T15:25:23;22.60;99.90
37050;DHT22;22958;51.232;6.826;2023-07-09T15:27:49;22.60;99.90
37050;DHT22;22958;51.232;6.826;2023-07-09T15:30:18;22.70;99.90
37050;DHT22;22958;51.232;6.826;2023-07-09T15:32:45;22.70;99.90
37050;DHT22;22958;51.232;6.826;2023-07-09T15:35:12;22.80;99.90
37050;DHT22;22958;51.232;6.826;2023-07-09T15:37:38;22.80;99.90
37050;DHT22;22958;51.232;6.826;2023-07-09T15:40:05;22.90;99.90
37050;DHT22;22958;51.232;6.826;2023-07-09T15:42:39;23.00;99.90
37050;DHT22;22958;51.232;6.826;2023-07-09T15:45:05;23.00;99.90
37050;DHT22;22958;51.232;6.826;2023-07-09T15:47:30;23.10;99.90
37050;DHT22;22958;51.232;6.826;2023-07-09T15:49:56;23.10;99.90
37050;DHT22;22958;51.232;6.826;2023-07-09T15:52:21;23.20;99.90
37050;DHT22;22958;51.232;6.826;2023-07-09T15:54:47;23.20;99.90
37050;DHT22;22958;51.232;6.826;2023-07-09T15:57:14;23.40;99.90
37050;DHT22;22958;51.232;6.826;2023-07-09T15:59:40;23.40;99.90
37050;DHT22;22958;51.232;6.826;2023-07-09T16:02:12;23.50;99.90
37050;DHT22;22958;51.232;6.826;2023-07-09T16:04:38;23.60;99.90
37050;DHT22;22958;51.232;6.826;2023-07-09T16:07:04;23.80;99.90
37050;DHT22;22958;51.232;6.826;2023-07-09T16:09:29;24.10;99.90
37050;DHT22;22958;51.232;6.826;2023-07-09T16:11:55;24.30;99.90